createdAt,value
2022-08-23T00:01:47.075Z,19.20
2022-08-23T00:04:19.799Z,19.20
2022-08-23T00:06:49.697Z,19.20
2022-08-23T00:09:19.105Z,19.10
2022-08-23T00:11:50.323Z,19.10
2022-08-23T00:14:21.987Z,19.20
2022-08-23T00:16:51.632Z,19.20
2022-08-23T00:19:23.323Z,19.20
2022-08-23T00:21:53.513Z,19.20
2022-08-23T00:24:24.913Z,19.20
2022-08-23T00:27:00.173Z,19.20
2022-08-23T00:29:32.027Z,19.10
2022-08-23T00:32:01.272Z,19.10
2022-08-23T00:34:32.195Z,19.10
2022-08-23T00:37:00.874Z,19.10
2022-08-23T00:39:30.600Z,19.10
2022-08-23T00:42:26.595Z,19.20
2022-08-23T00:45:13.945Z,19.10
2022-08-23T00:47:44.948Z,19.10
2022-08-23T00:50:24.922Z,19.20
2022-08-23T00:53:02.382Z,19.20
2022-08-23T00:55:32.093Z,19.20
2022-08-23T00:58:01.400Z,19.20
2022-08-23T01:00:30.669Z,19.20
2022-08-23T01:02:59.682Z,19.30
2022-08-23T01:05:37.853Z,19.30
2022-08-23T01:08:06.578Z,19.30
2022-08-23T01:10:39.743Z,19.30
2022-08-23T01:13:13.203Z,19.30
2022-08-23T01:15:47.115Z,19.40
2022-08-23T01:18:20.031Z,19.40
2022-08-23T01:20:57.183Z,19.40
2022-08-23T01:23:39.112Z,19.40
2022-08-23T01:26:08.892Z,19.40
2022-08-23T01:28:41.171Z,19.40
2022-08-23T01:31:15.975Z,19.40
2022-08-23T01:33:45.030Z,19.40
2022-08-23T01:36:16.156Z,19.40
2022-08-23T01:38:46.487Z,19.40
2022-08-23T01:41:15.150Z,19.40
2022-08-23T01:43:43.845Z,19.40
2022-08-23T01:46:19.100Z,19.40
2022-08-23T01:48:48.830Z,19.40
2022-08-23T01:51:19.688Z,19.40
2022-08-23T01:53:50.842Z,19.40
2022-08-23T01:56:38.177Z,19.40
2022-08-23T01:59:08.751Z,19.40
2022-08-23T02:01:38.313Z,19.40
2022-08-23T02:04:07.752Z,19.30
2022-08-23T02:06:36.704Z,19.30
2022-08-23T02:09:17.590Z,19.30
2022-08-23T02:11:47.525Z,19.30
2022-08-23T02:14:22.474Z,19.40
2022-08-23T02:17:03.887Z,19.30
2022-08-23T02:19:34.570Z,19.40
2022-08-23T02:22:03.711Z,19.40
2022-08-23T02:24:34.657Z,19.40
2022-08-23T02:27:06.252Z,19.40
2022-08-23T02:29:39.161Z,19.30
2022-08-23T02:32:09.784Z,19.30
2022-08-23T02:34:38.818Z,19.30
2022-08-23T02:37:07.633Z,19.30
2022-08-23T02:39:38.760Z,19.30
2022-08-23T02:42:08.313Z,19.20
2022-08-23T02:44:40.844Z,19.20
2022-08-23T02:47:09.655Z,19.20
2022-08-23T02:49:38.406Z,19.10
2022-08-23T02:52:08.610Z,19.10
2022-08-23T02:54:38.681Z,19.10
2022-08-23T02:57:08.133Z,19.10
2022-08-23T02:59:37.456Z,19.00
2022-08-23T03:02:06.321Z,19.00
2022-08-23T03:04:35.024Z,19.00
2022-08-23T03:07:03.794Z,18.90
2022-08-23T03:09:35.775Z,18.90
2022-08-23T03:12:06.610Z,18.80
2022-08-23T03:14:35.663Z,18.70
2022-08-23T03:17:07.889Z,18.60
2022-08-23T03:19:37.002Z,18.60
2022-08-23T03:22:05.755Z,18.50
2022-08-23T03:24:34.704Z,18.50
2022-08-23T03:27:03.463Z,18.50
2022-08-23T03:29:33.896Z,18.40
2022-08-23T03:32:03.746Z,18.40
2022-08-23T03:34:32.845Z,18.40
2022-08-23T03:37:02.105Z,18.40
2022-08-23T03:39:31.012Z,18.40
2022-08-23T03:41:59.677Z,18.40
2022-08-23T03:44:28.852Z,18.40
2022-08-23T03:46:59.015Z,18.50
2022-08-23T03:49:27.823Z,18.50
2022-08-23T03:51:56.392Z,18.50
2022-08-23T03:54:25.568Z,18.50
2022-08-23T03:56:56.944Z,18.40
2022-08-23T03:59:25.562Z,18.40
2022-08-23T04:01:54.332Z,18.40
2022-08-23T04:04:25.215Z,18.30
2022-08-23T04:06:53.845Z,18.40
2022-08-23T04:09:22.583Z,18.30
2022-08-23T04:11:52.775Z,18.30
2022-08-23T04:14:21.468Z,18.30
2022-08-23T04:16:50.189Z,18.30
2022-08-23T04:19:18.943Z,18.20
2022-08-23T04:21:52.336Z,18.20
2022-08-23T04:24:21.762Z,18.20
2022-08-23T04:26:50.460Z,18.20
2022-08-23T04:29:33.785Z,18.20
2022-08-23T04:32:05.636Z,18.20
2022-08-23T04:34:40.109Z,18.10
2022-08-23T04:37:10.755Z,18.10
2022-08-23T04:39:53.839Z,18.20
2022-08-23T04:42:23.592Z,18.20
2022-08-23T04:44:52.633Z,18.20
2022-08-23T04:47:21.764Z,18.20
2022-08-23T04:49:50.356Z,18.20
2022-08-23T04:52:20.554Z,18.20
2022-08-23T04:54:49.367Z,18.20
2022-08-23T04:57:18.046Z,18.10
2022-08-23T04:59:46.787Z,18.10
2022-08-23T05:02:15.476Z,18.10
2022-08-23T05:04:44.717Z,18.10
2022-08-23T05:07:13.366Z,18.10
2022-08-23T05:09:43.633Z,18.00
2022-08-23T05:12:12.325Z,18.00
2022-08-23T05:14:40.935Z,18.00
2022-08-23T05:17:12.981Z,18.00
2022-08-23T05:19:44.346Z,18.00
2022-08-23T05:22:15.882Z,18.00
2022-08-23T05:24:45.963Z,18.00
2022-08-23T05:27:14.756Z,18.00
2022-08-23T05:29:43.393Z,18.00
2022-08-23T05:32:12.103Z,17.90
2022-08-23T05:34:40.865Z,17.90
2022-08-23T05:37:09.503Z,17.90
2022-08-23T05:39:38.265Z,17.90
2022-08-23T05:42:10.106Z,18.00
2022-08-23T05:44:38.952Z,18.00
2022-08-23T05:47:11.229Z,18.00
2022-08-23T05:49:41.074Z,18.10
2022-08-23T05:52:12.017Z,18.10
2022-08-23T05:54:41.510Z,18.20
2022-08-23T05:57:11.853Z,18.20
2022-08-23T05:59:42.176Z,18.30
2022-08-23T06:02:11.633Z,18.40
2022-08-23T06:04:40.313Z,18.50
2022-08-23T06:07:11.283Z,18.60
2022-08-23T06:09:40.173Z,18.70
2022-08-23T06:12:10.706Z,18.80
2022-08-23T06:14:39.764Z,18.90
2022-08-23T06:17:08.420Z,19.00
2022-08-23T06:19:37.437Z,19.20
2022-08-23T06:22:06.353Z,19.30
2022-08-23T06:24:35.523Z,19.50
2022-08-23T06:27:04.456Z,19.70
2022-08-23T06:29:34.577Z,19.90
2022-08-23T06:32:03.272Z,20.00
2022-08-23T06:34:34.710Z,20.20
2022-08-23T06:37:05.565Z,20.40
2022-08-23T06:39:37.539Z,20.60
2022-08-23T06:42:28.036Z,20.80
2022-08-23T06:44:58.873Z,21.00
2022-08-23T06:47:27.695Z,21.20
2022-08-23T06:49:58.301Z,21.40
2022-08-23T06:52:29.022Z,21.50
2022-08-23T06:54:57.939Z,21.60
2022-08-23T06:57:26.806Z,21.70
2022-08-23T06:59:55.550Z,21.80
2022-08-23T07:02:28.692Z,22.00
2022-08-23T07:04:57.410Z,22.00
2022-08-23T07:07:41.297Z,22.00
2022-08-23T07:10:13.183Z,22.00
2022-08-23T07:12:42.709Z,22.20
2022-08-23T07:15:13.606Z,22.30
2022-08-23T07:17:43.985Z,22.40
2022-08-23T07:20:12.976Z,22.50
2022-08-23T07:22:41.755Z,22.70
2022-08-23T07:25:10.631Z,22.70
2022-08-23T07:27:39.728Z,22.70
2022-08-23T07:30:09.474Z,22.60
2022-08-23T07:32:38.390Z,22.50
2022-08-23T07:35:09.456Z,22.40
2022-08-23T07:37:38.038Z,22.40
2022-08-23T07:40:08.703Z,22.50
2022-08-23T07:42:37.415Z,22.50
2022-08-23T07:45:10.006Z,22.70
2022-08-23T07:47:38.696Z,22.80
2022-08-23T07:50:09.897Z,22.80
2022-08-23T07:52:38.765Z,22.90
2022-08-23T07:55:08.364Z,23.10
2022-08-23T07:57:37.058Z,23.20
2022-08-23T08:00:06.911Z,23.60
2022-08-23T08:02:35.893Z,24.00
2022-08-23T08:05:04.841Z,24.50
2022-08-23T08:07:35.555Z,25.00
2022-08-23T08:10:07.311Z,25.10
2022-08-23T08:12:36.394Z,25.60
2022-08-23T08:15:06.041Z,26.20
2022-08-23T08:17:34.645Z,27.10
2022-08-23T08:20:03.342Z,28.60
2022-08-23T08:22:32.142Z,29.80
2022-08-23T08:25:02.868Z,30.80
2022-08-23T08:27:33.332Z,31.50
2022-08-23T08:30:04.595Z,31.50
2022-08-23T08:32:33.524Z,30.90
2022-08-23T08:35:02.633Z,31.40
2022-08-23T08:37:32.292Z,31.60
2022-08-23T08:40:02.498Z,31.20
2022-08-23T08:42:45.183Z,30.80
2022-08-23T08:45:18.125Z,30.90
2022-08-23T08:47:50.292Z,31.30
2022-08-23T08:50:26.996Z,31.50
2022-08-23T08:53:01.887Z,31.80
2022-08-23T08:55:35.235Z,33.00
2022-08-23T08:58:07.762Z,33.30
2022-08-23T09:00:40.133Z,32.90
2022-08-23T09:03:12.097Z,33.80
2022-08-23T09:05:47.075Z,35.10
2022-08-23T09:08:35.193Z,35.80
2022-08-23T09:11:16.222Z,36.50
2022-08-23T09:14:00.599Z,37.20
2022-08-23T09:16:41.303Z,37.70
2022-08-23T09:19:09.983Z,37.50
2022-08-23T09:21:48.032Z,37.90
2022-08-23T09:24:17.935Z,38.00
2022-08-23T09:26:47.992Z,38.40
2022-08-23T09:29:22.055Z,38.80
2022-08-23T09:31:54.084Z,39.10
2022-08-23T09:34:24.453Z,39.50
2022-08-23T09:36:53.323Z,39.90
2022-08-23T09:39:31.604Z,40.10
2022-08-23T09:42:02.155Z,40.40
2022-08-23T09:44:41.133Z,40.60
2022-08-23T09:47:15.215Z,41.10
2022-08-23T09:49:44.937Z,40.90
2022-08-23T09:52:22.239Z,41.00
2022-08-23T09:54:59.323Z,41.50
2022-08-23T09:57:31.792Z,41.50
2022-08-23T10:00:05.119Z,41.50
2022-08-23T10:02:36.107Z,41.60
2022-08-23T10:05:17.787Z,41.50
2022-08-23T10:08:00.077Z,41.50
2022-08-23T10:10:37.183Z,41.80
2022-08-23T10:13:08.023Z,42.10
2022-08-23T10:15:53.773Z,42.00
2022-08-23T10:18:36.243Z,42.10
2022-08-23T10:21:23.792Z,42.40
2022-08-23T10:24:07.603Z,42.60
2022-08-23T10:26:40.775Z,42.70
2022-08-23T10:29:43.672Z,42.90
2022-08-23T10:32:22.844Z,42.50
2022-08-23T10:35:04.774Z,42.50
2022-08-23T10:37:47.703Z,42.20
2022-08-23T10:40:20.382Z,42.10
2022-08-23T10:42:59.405Z,42.10
2022-08-23T10:45:33.802Z,42.00
2022-08-23T10:48:15.653Z,42.40
2022-08-23T10:50:55.459Z,42.60
2022-08-23T10:53:32.914Z,43.10
2022-08-23T10:56:04.534Z,43.40
2022-08-23T10:58:35.686Z,43.50
2022-08-23T11:01:09.351Z,43.70
2022-08-23T11:03:43.612Z,43.30
2022-08-23T11:06:52.365Z,42.90
2022-08-23T11:09:37.852Z,43.10
2022-08-23T11:12:22.033Z,43.50
2022-08-23T11:15:05.362Z,43.50
2022-08-23T11:17:42.927Z,43.50
2022-08-23T11:20:15.173Z,43.50
2022-08-23T11:23:15.277Z,43.60
2022-08-23T11:25:46.155Z,43.50
2022-08-23T11:28:41.316Z,43.40
2022-08-23T11:31:33.115Z,43.70
2022-08-23T11:34:07.194Z,44.40
2022-08-23T11:36:38.043Z,44.70
2022-08-23T11:39:11.613Z,44.60
2022-08-23T11:42:02.905Z,44.90
2022-08-23T11:44:38.822Z,44.70
2022-08-23T11:47:09.514Z,44.80
2022-08-23T11:49:58.857Z,44.40
2022-08-23T11:52:51.233Z,44.60
2022-08-23T11:55:31.146Z,44.90
2022-08-23T11:58:15.630Z,44.90
2022-08-23T12:01:06.551Z,44.80
2022-08-23T12:03:41.235Z,45.10
2022-08-23T12:06:31.923Z,44.90
2022-08-23T12:09:06.554Z,45.30
2022-08-23T12:12:14.503Z,45.20
2022-08-23T12:14:56.492Z,45.10
2022-08-23T12:17:58.586Z,45.10
2022-08-23T12:20:33.182Z,45.20
2022-08-23T12:23:09.233Z,45.20
2022-08-23T12:25:38.154Z,45.60
2022-08-23T12:28:31.622Z,45.30
2022-08-23T12:31:07.953Z,45.20
2022-08-23T12:33:47.592Z,45.10
2022-08-23T12:36:27.056Z,45.10
2022-08-23T12:39:04.265Z,45.00
2022-08-23T12:41:37.623Z,44.90
2022-08-23T12:44:08.934Z,44.80
2022-08-23T12:46:38.794Z,45.00
2022-08-23T12:49:13.209Z,44.80
2022-08-23T12:51:43.805Z,44.50
2022-08-23T12:54:19.648Z,44.80
2022-08-23T12:56:51.513Z,44.60
2022-08-23T12:59:45.034Z,44.20
2022-08-23T13:02:29.291Z,44.00
2022-08-23T13:05:03.992Z,43.90
2022-08-23T13:07:33.055Z,43.80
2022-08-23T13:10:03.352Z,43.80
2022-08-23T13:12:32.234Z,43.80
2022-08-23T13:15:02.901Z,43.70
2022-08-23T13:17:39.923Z,44.20
2022-08-23T13:20:22.123Z,44.30
2022-08-23T13:23:03.061Z,44.10
2022-08-23T13:25:37.641Z,44.10
2022-08-23T13:28:22.302Z,43.70
2022-08-23T13:31:00.891Z,43.30
2022-08-23T13:33:29.713Z,43.40
2022-08-23T13:36:13.459Z,43.30
2022-08-23T13:38:44.140Z,42.90
2022-08-23T13:41:30.451Z,43.00
2022-08-23T13:43:59.428Z,42.50
2022-08-23T13:46:33.485Z,42.60
2022-08-23T13:49:05.797Z,42.50
2022-08-23T13:51:38.850Z,42.20
2022-08-23T13:57:54.922Z,41.80
2022-08-23T14:00:25.542Z,41.90
2022-08-23T14:02:54.340Z,41.80
2022-08-23T14:05:25.199Z,41.50
2022-08-23T14:07:54.051Z,41.40
2022-08-23T14:10:23.513Z,41.00
2022-08-23T14:12:56.139Z,40.90
2022-08-23T14:15:54.583Z,40.70
2022-08-23T14:18:14.102Z,40.40
2022-08-23T14:20:45.903Z,40.00
2022-08-23T14:23:15.225Z,39.70
2022-08-23T14:25:44.315Z,39.70
2022-08-23T14:28:14.301Z,39.90
2022-08-23T14:30:42.894Z,39.80
2022-08-23T14:33:11.671Z,39.50
2022-08-23T14:35:40.292Z,39.20
2022-08-23T14:38:08.954Z,38.60
2022-08-23T14:40:38.065Z,38.30
2022-08-23T14:43:07.075Z,38.20
2022-08-23T14:45:37.457Z,37.80
2022-08-23T14:48:07.290Z,37.40
2022-08-23T14:50:36.640Z,36.70
2022-08-23T14:53:06.812Z,36.30
2022-08-23T14:55:35.837Z,36.10
2022-08-23T14:58:05.478Z,36.20
2022-08-23T15:00:37.485Z,36.00
2022-08-23T15:03:09.973Z,35.90
2022-08-23T15:05:39.178Z,35.70
2022-08-23T15:08:08.464Z,35.70
2022-08-23T15:12:56.897Z,35.60
2022-08-23T15:13:33.387Z,35.40
2022-08-23T15:16:09.144Z,35.40
2022-08-23T15:18:40.702Z,35.10
2022-08-23T15:21:10.330Z,35.20
2022-08-23T15:23:38.994Z,35.40
2022-08-23T15:26:08.195Z,35.40
2022-08-23T15:28:38.048Z,35.30
2022-08-23T15:31:09.104Z,35.20
2022-08-23T15:33:38.192Z,35.10
2022-08-23T15:36:08.532Z,35.10
2022-08-23T15:38:38.672Z,35.10
2022-08-23T15:41:08.562Z,34.90
2022-08-23T15:43:39.926Z,34.50
2022-08-23T15:46:13.763Z,34.20
2022-08-23T15:48:46.165Z,34.10
2022-08-23T15:51:14.833Z,33.80
2022-08-23T15:53:44.226Z,33.60
2022-08-23T15:56:18.101Z,33.30
2022-08-23T15:58:47.767Z,33.00
2022-08-23T16:01:23.930Z,32.70
2022-08-23T16:03:54.153Z,32.30
2022-08-23T16:06:23.580Z,31.90
2022-08-23T16:08:54.422Z,31.90
2022-08-23T16:11:24.306Z,31.80
2022-08-23T16:13:53.728Z,31.80
2022-08-23T16:16:30.669Z,31.70
2022-08-23T16:19:01.444Z,31.60
2022-08-23T16:21:32.472Z,31.40
2022-08-23T16:24:02.223Z,31.30
2022-08-23T16:26:35.218Z,31.10
2022-08-23T16:29:07.786Z,30.70
2022-08-23T16:31:40.075Z,30.40
2022-08-23T16:34:11.365Z,30.10
2022-08-23T16:36:42.184Z,29.80
2022-08-23T16:39:13.524Z,29.50
2022-08-23T16:41:42.592Z,29.20
2022-08-23T16:44:11.355Z,29.10
2022-08-23T16:46:44.178Z,28.80
2022-08-23T16:49:14.767Z,28.60
2022-08-23T16:51:44.233Z,28.40
2022-08-23T16:54:13.129Z,28.10
2022-08-23T16:56:43.699Z,28.00
2022-08-23T16:59:14.747Z,27.80
2022-08-23T17:01:51.476Z,27.80
2022-08-23T17:04:22.200Z,27.60
2022-08-23T17:06:55.548Z,27.40
2022-08-23T17:09:26.603Z,27.20
2022-08-23T17:11:58.455Z,27.00
2022-08-23T17:14:29.445Z,26.80
2022-08-23T17:17:00.661Z,26.70
2022-08-23T17:19:30.233Z,26.50
2022-08-23T17:22:00.047Z,26.30
2022-08-23T17:24:31.137Z,26.10
2022-08-23T17:27:00.344Z,26.00
2022-08-23T17:29:30.859Z,25.80
2022-08-23T17:32:08.646Z,25.70
2022-08-23T17:34:39.421Z,25.50
2022-08-23T17:37:17.662Z,25.40
2022-08-23T17:39:47.103Z,25.30
2022-08-23T17:42:16.412Z,25.20
2022-08-23T17:44:46.225Z,25.00
2022-08-23T17:47:18.583Z,24.90
2022-08-23T17:49:49.420Z,24.80
2022-08-23T17:52:19.220Z,24.70
2022-08-23T17:54:47.833Z,24.70
2022-08-23T17:57:16.882Z,24.70
2022-08-23T17:59:45.881Z,24.70
2022-08-23T18:02:17.065Z,24.70
2022-08-23T18:04:46.003Z,24.70
2022-08-23T18:07:14.986Z,24.80
2022-08-23T18:09:48.526Z,24.90
2022-08-23T18:12:18.021Z,24.80
2022-08-23T18:14:47.551Z,24.80
2022-08-23T18:17:18.134Z,24.80
2022-08-23T18:19:47.761Z,24.80
2022-08-23T18:22:17.412Z,24.70
2022-08-23T18:24:46.884Z,24.70
2022-08-23T18:27:33.460Z,24.60
2022-08-23T18:30:02.940Z,24.60
2022-08-23T18:32:34.132Z,24.60
2022-08-23T18:35:04.238Z,24.40
2022-08-23T18:37:33.491Z,24.30
2022-08-23T18:40:06.529Z,24.20
2022-08-23T18:42:38.710Z,24.10
2022-08-23T18:45:09.249Z,24.20
2022-08-23T18:47:39.974Z,24.10
2022-08-23T18:50:12.151Z,24.00
2022-08-23T18:52:42.321Z,23.90
2022-08-23T18:55:11.855Z,23.80
2022-08-23T18:57:40.782Z,23.70
2022-08-23T19:00:11.694Z,23.70
2022-08-23T19:02:42.332Z,23.60
2022-08-23T19:05:11.686Z,23.50
2022-08-23T19:07:40.995Z,23.50
2022-08-23T19:10:11.259Z,23.40
2022-08-23T19:12:51.677Z,23.40
2022-08-23T19:15:23.342Z,23.40
2022-08-23T19:17:54.370Z,23.30
2022-08-23T19:20:23.464Z,23.20
2022-08-23T19:22:54.151Z,23.10
2022-08-23T19:25:23.602Z,23.10
2022-08-23T19:27:52.363Z,23.10
2022-08-23T19:30:21.043Z,23.10
2022-08-23T19:32:50.892Z,23.10
2022-08-23T19:35:21.432Z,23.10
2022-08-23T19:37:50.330Z,23.10
2022-08-23T19:40:19.312Z,23.00
2022-08-23T19:42:48.924Z,22.90
2022-08-23T19:45:19.323Z,22.90
2022-08-23T19:47:48.195Z,22.80
2022-08-23T19:50:20.573Z,22.80
2022-08-23T19:52:55.060Z,22.70
2022-08-23T19:55:24.133Z,22.70
2022-08-23T19:57:55.496Z,22.60
2022-08-23T20:00:25.156Z,22.60
2022-08-23T20:02:53.984Z,22.60
2022-08-23T20:05:22.974Z,22.50
2022-08-23T20:07:51.786Z,22.40
2022-08-23T20:10:22.302Z,22.30
2022-08-23T20:12:51.157Z,22.20
2022-08-23T20:15:20.034Z,22.20
2022-08-23T20:17:48.654Z,22.20
2022-08-23T20:20:17.366Z,22.20
2022-08-23T20:23:03.344Z,22.20
2022-08-23T20:25:33.812Z,22.20
2022-08-23T20:28:05.260Z,22.10
2022-08-23T20:30:34.189Z,22.10
2022-08-23T20:33:03.400Z,22.10
2022-08-23T20:35:32.364Z,22.00
2022-08-23T20:38:02.651Z,22.00
2022-08-23T20:40:33.482Z,22.00
2022-08-23T20:43:02.378Z,21.90
2022-08-23T20:45:31.392Z,21.90
2022-08-23T20:48:00.326Z,21.90
2022-08-23T20:50:29.884Z,21.90
2022-08-23T20:52:58.650Z,21.90
2022-08-23T20:55:27.323Z,21.80
2022-08-23T20:57:57.344Z,21.80
2022-08-23T21:00:26.161Z,21.80
2022-08-23T21:02:55.138Z,21.80
2022-08-23T21:05:23.863Z,21.80
2022-08-23T21:07:52.908Z,21.90
2022-08-23T21:10:21.750Z,21.90
2022-08-23T21:12:50.445Z,21.90
2022-08-23T21:15:20.698Z,21.80
2022-08-23T21:17:49.934Z,21.80
2022-08-23T21:20:19.201Z,21.80
2022-08-23T21:22:47.937Z,21.80
2022-08-23T21:25:16.767Z,21.70
2022-08-23T21:27:45.418Z,21.70
2022-08-23T21:30:15.518Z,21.60
2022-08-23T21:32:45.978Z,21.50
2022-08-23T21:35:15.127Z,21.40
2022-08-23T21:37:43.804Z,21.30
2022-08-23T21:40:13.806Z,21.30
2022-08-23T21:42:42.594Z,21.20
2022-08-23T21:45:11.708Z,21.10
2022-08-23T21:47:40.401Z,21.10
2022-08-23T21:50:11.404Z,21.10
2022-08-23T21:52:40.622Z,20.90
2022-08-23T21:55:10.673Z,20.90
2022-08-23T21:57:39.636Z,20.80
2022-08-23T22:00:13.409Z,20.80
2022-08-23T22:02:42.546Z,20.90
2022-08-23T22:05:12.743Z,20.90
2022-08-23T22:07:41.546Z,20.90
2022-08-23T22:10:11.521Z,20.90
2022-08-23T22:12:40.968Z,20.90
2022-08-23T22:15:10.434Z,21.00
2022-08-23T22:17:39.061Z,21.00
2022-08-23T22:20:09.536Z,21.10
2022-08-23T22:22:39.814Z,21.10
2022-08-23T22:25:09.504Z,21.10
2022-08-23T22:27:38.186Z,21.20
2022-08-23T22:30:07.806Z,21.20
2022-08-23T22:32:36.855Z,21.20
2022-08-23T22:35:06.674Z,21.30
2022-08-23T22:37:35.683Z,21.30
2022-08-23T22:40:07.193Z,21.30
2022-08-23T22:42:36.070Z,21.30
2022-08-23T22:45:06.295Z,21.40
2022-08-23T22:47:34.936Z,21.40
2022-08-23T22:50:04.101Z,21.40
2022-08-23T22:52:32.966Z,21.40
2022-08-23T22:55:01.983Z,21.40
2022-08-23T22:57:32.264Z,21.40
2022-08-23T23:00:01.085Z,21.40
2022-08-23T23:02:31.177Z,21.30
2022-08-23T23:04:59.823Z,21.30
2022-08-23T23:07:45.039Z,21.30
2022-08-23T23:10:15.236Z,21.40
2022-08-23T23:12:45.747Z,21.30
2022-08-23T23:15:14.737Z,21.30
2022-08-23T23:17:43.455Z,21.30
2022-08-23T23:20:30.788Z,21.20
2022-08-23T23:22:59.466Z,21.20
2022-08-23T23:25:28.336Z,21.20
2022-08-23T23:28:02.309Z,21.20
2022-08-23T23:30:32.629Z,21.20
2022-08-23T23:33:01.716Z,21.20
2022-08-23T23:35:30.605Z,21.10
2022-08-23T23:38:00.149Z,21.10
2022-08-23T23:40:30.119Z,21.10
2022-08-23T23:42:58.864Z,21.10
2022-08-23T23:45:29.408Z,21.10
2022-08-23T23:47:58.383Z,21.10
2022-08-23T23:50:28.374Z,21.10
2022-08-23T23:52:57.303Z,21.00
2022-08-23T23:55:26.074Z,21.00
2022-08-23T23:57:54.806Z,21.00
